Terminal Aerodrome Forecast
Issued by NWS

Home | Current Version | Previous Version | Text Only | Print | Product List | Glossary On
Versions: 1 2 3 4 5 6 7 8 9 10 11 12 13 14 15 16 17 18
000
FTAK31 PAJN 300500 RRA
TAFAKT
TAF
PAKT 300541Z 3006/3106 17007KT P6SM VCSH SCT022 BKN045 BKN060
      TEMPO 3006/3008 -SHRA BKN022
     FM300800 15007KT P6SM BKN040 BKN180
     FM301400 33007KT P6SM FEW040 OVC100
     FM301800 33011KT P6SM -RA SCT030 OVC050 WS020/05030KT
     FM302200 14020G28KT 4SM RA BR BKN022 OVC030 WS020/15045KT
     FM310300 16014G22KT 6SM -RA BR OVC022
      AMD LTD TO CLD VIS AND WIND 3006/3015=

USA.gov is the U.S. government's official web portal to all federal, state and local government web resources and services.